createdAt,value
2017-11-01T00:00:56.196Z,12.17
2017-11-01T00:03:24.504Z,10.90
2017-11-01T00:05:52.824Z,11.37
2017-11-01T00:08:21.128Z,10.60
2017-11-01T00:10:50.215Z,11.70
2017-11-01T00:13:19.284Z,11.17
2017-11-01T00:15:47.613Z,10.37
2017-11-01T00:18:15.913Z,10.23
2017-11-01T00:20:44.245Z,10.90
2017-11-01T00:23:13.309Z,10.60
2017-11-01T00:25:41.632Z,11.80
2017-11-01T00:28:10.695Z,9.90
2017-11-01T00:30:39.013Z,10.27
2017-11-01T00:33:08.070Z,9.80
2017-11-01T00:35:36.385Z,9.27
2017-11-01T00:38:05.445Z,9.20
2017-11-01T00:40:33.769Z,10.17
2017-11-01T00:43:02.096Z,10.40
2017-11-01T00:45:30.395Z,11.90
2017-11-01T00:47:59.479Z,11.57
2017-11-01T00:50:27.790Z,11.30
2017-11-01T00:52:56.873Z,12.33
2017-11-01T00:55:25.937Z,9.23
2017-11-01T00:57:54.256Z,9.50
2017-11-01T01:00:23.369Z,8.90
2017-11-01T01:02:51.692Z,8.77
2017-11-01T01:05:19.987Z,9.40
2017-11-01T01:07:48.308Z,8.37
2017-11-01T01:10:16.608Z,9.10
2017-11-01T01:12:44.928Z,7.87
2017-11-01T01:15:13.227Z,8.50
2017-11-01T01:17:42.312Z,8.83
2017-11-01T01:20:11.368Z,8.43
2017-11-01T01:22:39.691Z,8.80
2017-11-01T01:25:08.755Z,8.70
2017-11-01T01:27:37.084Z,10.30
2017-11-01T01:30:05.382Z,12.47
2017-11-01T01:32:33.709Z,12.27
2017-11-01T01:35:02.772Z,9.90
2017-11-01T01:37:31.093Z,10.17
2017-11-01T01:40:00.161Z,10.30
2017-11-01T01:42:28.516Z,9.10
2017-11-01T01:44:56.817Z,8.87
2017-11-01T01:47:25.148Z,10.27
2017-11-01T01:52:53.242Z,10.93
2017-11-01T01:55:21.546Z,9.43
2017-11-01T01:57:49.869Z,10.40
2017-11-01T02:00:18.928Z,10.37
2017-11-01T02:02:47.259Z,9.43
2017-11-01T02:05:15.572Z,8.13
2017-11-01T02:07:43.898Z,9.20
2017-11-01T02:10:12.975Z,9.90
2017-11-01T02:12:41.304Z,8.53
2017-11-01T02:15:09.616Z,8.30
2017-11-01T02:17:37.933Z,9.67
2017-11-01T02:20:07.007Z,10.07
2017-11-01T02:22:35.331Z,8.53
2017-11-01T02:25:04.414Z,9.27
2017-11-01T02:27:33.501Z,10.40
2017-11-01T02:30:01.812Z,9.77
2017-11-01T02:32:30.140Z,10.03
2017-11-01T02:34:58.447Z,9.67
2017-11-01T02:37:26.769Z,9.50
2017-11-01T02:39:55.066Z,9.47
2017-11-01T02:42:23.378Z,9.73
2017-11-01T02:44:51.694Z,9.50
2017-11-01T02:47:20.009Z,9.60
2017-11-01T02:49:48.307Z,9.07
2017-11-01T02:52:17.392Z,8.00
2017-11-01T02:54:46.466Z,8.57
2017-11-01T02:57:14.804Z,7.97
2017-11-01T02:59:43.116Z,9.07
2017-11-01T03:02:11.434Z,8.40
2017-11-01T03:04:40.499Z,8.10
2017-11-01T03:07:08.919Z,8.07
2017-11-01T03:09:38.004Z,8.70
2017-11-01T03:12:06.467Z,9.70
2017-11-01T03:14:35.549Z,8.47
2017-11-01T03:17:03.890Z,11.23
2017-11-01T03:19:32.213Z,10.97
2017-11-01T03:22:00.556Z,11.10
2017-11-01T03:24:28.871Z,9.90
2017-11-01T03:26:57.191Z,9.87
2017-11-01T03:29:25.531Z,9.47
2017-11-01T03:31:53.860Z,10.60
2017-11-01T03:34:22.175Z,11.30
2017-11-01T03:36:50.493Z,12.03
2017-11-01T03:39:18.817Z,11.63
2017-11-01T03:41:47.148Z,10.73
2017-11-01T03:44:15.457Z,8.70
2017-11-01T03:46:43.785Z,6.80
2017-11-01T03:49:12.089Z,6.83
2017-11-01T03:51:40.448Z,6.80
2017-11-01T03:54:09.529Z,7.30
2017-11-01T03:56:37.863Z,7.10
2017-11-01T03:59:06.943Z,6.60
2017-11-01T04:01:35.267Z,7.00
2017-11-01T04:04:11.948Z,6.50
2017-11-01T04:06:40.275Z,6.10
2017-11-01T04:09:08.583Z,6.30
2017-11-01T04:11:36.901Z,6.70
2017-11-01T04:14:06.999Z,6.40
2017-11-01T04:16:35.332Z,7.20
2017-11-01T04:19:09.645Z,7.33
2017-11-01T04:21:38.785Z,8.17
2017-11-01T04:24:07.083Z,6.80
2017-11-01T04:26:35.381Z,9.73
2017-11-01T04:29:04.481Z,10.00
2017-11-01T04:31:34.568Z,8.07
2017-11-01T04:34:02.889Z,7.73
2017-11-01T04:36:31.204Z,8.10
2017-11-01T04:38:59.525Z,6.93
2017-11-01T04:41:27.838Z,8.37
2017-11-01T04:43:56.163Z,6.73
2017-11-01T04:49:23.176Z,6.30
2017-11-01T04:51:53.427Z,7.40
2017-11-01T04:54:21.739Z,6.80
2017-11-01T04:56:50.058Z,7.27
2017-11-01T04:59:18.360Z,7.40
2017-11-01T05:02:07.081Z,7.10
2017-11-01T05:04:35.405Z,6.87
2017-11-01T05:07:03.745Z,8.20
2017-11-01T05:09:51.612Z,7.43
2017-11-01T05:12:25.534Z,7.53
2017-11-01T05:14:53.873Z,6.17
2017-11-01T05:17:22.217Z,7.00
2017-11-01T05:19:50.532Z,8.33
2017-11-01T05:22:18.865Z,9.43
2017-11-01T05:24:52.756Z,9.93
2017-11-01T05:27:21.091Z,10.30
2017-11-01T05:29:49.429Z,9.00
2017-11-01T05:32:17.767Z,7.97
2017-11-01T05:34:46.077Z,7.37
2017-11-01T05:37:14.404Z,8.50
2017-11-01T05:39:42.733Z,9.93
2017-11-01T05:42:11.071Z,8.40
2017-11-01T05:44:39.389Z,8.40
2017-11-01T05:47:07.728Z,8.80
2017-11-01T05:49:36.044Z,8.07
2017-11-01T05:52:04.353Z,8.37
2017-11-01T05:54:33.463Z,8.77
2017-11-01T05:57:02.540Z,7.90
2017-11-01T05:59:30.872Z,8.40
2017-11-01T06:01:59.183Z,8.67
2017-11-01T06:04:27.511Z,9.43
2017-11-01T06:06:55.830Z,9.37
2017-11-01T06:09:24.150Z,11.80
2017-11-01T06:11:53.242Z,11.43
2017-11-01T06:14:22.340Z,10.80
2017-11-01T06:16:51.422Z,9.10
2017-11-01T06:19:19.749Z,9.37
2017-11-01T06:21:48.048Z,9.40
2017-11-01T06:24:16.381Z,8.17
2017-11-01T06:26:44.687Z,8.27
2017-11-01T06:29:13.023Z,7.30
2017-11-01T06:31:42.112Z,7.40
2017-11-01T06:34:10.423Z,9.50
2017-11-01T06:36:38.736Z,7.50
2017-11-01T06:39:07.079Z,6.40
2017-11-01T06:41:35.376Z,10.70
2017-11-01T06:44:03.705Z,8.13
2017-11-01T06:46:32.022Z,8.87
2017-11-01T06:49:00.340Z,8.50
2017-11-01T06:51:28.661Z,8.33
2017-11-01T06:53:57.751Z,7.20
2017-11-01T06:56:26.827Z,8.90
2017-11-01T06:58:55.133Z,7.70
2017-11-01T07:01:24.191Z,7.80
2017-11-01T07:03:52.524Z,7.17
2017-11-01T07:06:20.849Z,7.60
2017-11-01T07:08:49.168Z,6.90
2017-11-01T07:11:18.227Z,8.80
2017-11-01T07:13:46.569Z,7.30
2017-11-01T07:16:14.864Z,7.17
2017-11-01T07:18:43.202Z,6.30
2017-11-01T07:21:12.275Z,7.90
2017-11-01T07:23:41.386Z,7.97
2017-11-01T07:26:09.692Z,8.97
2017-11-01T07:28:38.035Z,8.30
2017-11-01T07:31:06.344Z,8.23
2017-11-01T07:33:35.435Z,9.33
2017-11-01T07:36:03.751Z,8.80
2017-11-01T07:38:32.089Z,9.20
2017-11-01T07:41:00.397Z,9.27
2017-11-01T07:43:28.733Z,11.17
2017-11-01T07:45:57.797Z,12.63
2017-11-01T07:48:26.127Z,10.10
2017-11-01T07:50:54.436Z,9.90
2017-11-01T07:53:22.771Z,8.40
2017-11-01T07:55:51.072Z,8.40
2017-11-01T07:58:19.387Z,9.27
2017-11-01T08:00:47.689Z,8.23
2017-11-01T08:03:16.020Z,7.17
2017-11-01T08:05:44.336Z,7.90
2017-11-01T08:08:12.644Z,8.23
2017-11-01T08:10:40.970Z,7.43
2017-11-01T08:13:09.273Z,7.97
2017-11-01T08:15:37.592Z,7.20
2017-11-01T08:18:05.895Z,7.20
2017-11-01T08:20:34.202Z,7.73
2017-11-01T08:23:02.509Z,9.20
2017-11-01T08:25:31.602Z,10.20
2017-11-01T08:28:00.663Z,7.23
2017-11-01T08:30:28.987Z,7.60
2017-11-01T08:32:57.305Z,6.63
2017-11-01T08:35:25.639Z,6.60
2017-11-01T08:37:53.951Z,6.73
2017-11-01T08:40:22.268Z,6.47
2017-11-01T08:42:50.572Z,5.93
2017-11-01T08:45:19.651Z,7.07
2017-11-01T08:47:48.711Z,5.60
2017-11-01T08:50:17.028Z,5.63
2017-11-01T08:52:46.123Z,6.30
2017-11-01T08:55:15.206Z,5.40
2017-11-01T08:57:43.500Z,5.93
2017-11-01T09:00:12.598Z,5.83
2017-11-01T09:02:41.675Z,6.03
2017-11-01T09:05:09.999Z,6.40
2017-11-01T09:07:38.294Z,4.80
2017-11-01T09:10:07.632Z,6.00
2017-11-01T09:12:35.928Z,6.73
2017-11-01T09:15:05.019Z,6.27
2017-11-01T09:17:33.340Z,6.30
2017-11-01T09:20:01.667Z,5.13
2017-11-01T09:22:29.966Z,5.20
2017-11-01T09:24:59.039Z,5.40
2017-11-01T09:27:27.343Z,4.53
2017-11-01T09:29:56.413Z,5.30
2017-11-01T09:32:24.715Z,4.80
2017-11-01T09:34:53.821Z,5.53
2017-11-01T09:37:22.112Z,5.90
2017-11-01T09:39:50.440Z,4.57
2017-11-01T09:42:18.745Z,5.20
2017-11-01T09:44:47.834Z,5.77
2017-11-01T09:47:16.923Z,6.57
2017-11-01T09:49:45.255Z,4.70
2017-11-01T09:52:13.543Z,4.50
2017-11-01T09:54:41.862Z,4.17
2017-11-01T09:57:10.163Z,4.30
2017-11-01T09:59:38.502Z,4.63
2017-11-01T10:02:06.814Z,4.20
2017-11-01T10:04:35.894Z,4.30
2017-11-01T10:07:04.222Z,3.67
2017-11-01T10:09:32.547Z,4.17
2017-11-01T10:12:00.858Z,3.87
2017-11-01T10:14:29.176Z,4.67
2017-11-01T10:17:00.755Z,4.00
2017-11-01T10:19:29.105Z,4.30
2017-11-01T10:21:58.069Z,3.83
2017-11-01T10:24:26.405Z,3.60
2017-11-01T10:26:54.746Z,4.30
2017-11-01T10:29:23.064Z,4.37
2017-11-01T10:31:51.373Z,3.60
2017-11-01T10:34:19.694Z,3.90
2017-11-01T10:36:48.000Z,4.23
2017-11-01T10:39:16.315Z,4.97
2017-11-01T10:41:44.676Z,3.80
2017-11-01T10:44:13.774Z,3.23
2017-11-01T10:46:42.842Z,3.13
2017-11-01T10:49:11.174Z,4.07
2017-11-01T10:51:39.468Z,3.93
2017-11-01T10:54:07.794Z,3.27
2017-11-01T10:56:36.084Z,3.50
2017-11-01T10:59:05.199Z,3.40
2017-11-01T11:01:34.412Z,3.80
2017-11-01T11:04:02.712Z,3.50
2017-11-01T11:06:31.034Z,3.77
2017-11-01T11:08:59.359Z,3.33
2017-11-01T11:11:27.694Z,3.70
2017-11-01T11:13:56.760Z,3.00
2017-11-01T11:16:25.084Z,4.17
2017-11-01T11:18:53.406Z,4.20
2017-11-01T11:21:21.732Z,3.37
2017-11-01T11:23:50.039Z,2.93
2017-11-01T11:26:18.362Z,2.77
2017-11-01T11:28:46.671Z,3.00
2017-11-01T11:31:15.005Z,2.70
2017-11-01T11:33:43.291Z,3.50
2017-11-01T11:36:11.630Z,2.93
2017-11-01T11:38:39.941Z,3.70
2017-11-01T11:41:08.263Z,3.97
2017-11-01T11:43:36.584Z,2.60
2017-11-01T11:46:04.914Z,3.63
2017-11-01T11:48:33.216Z,2.60
2017-11-01T11:51:01.559Z,2.80
2017-11-01T11:53:30.635Z,2.10
2017-11-01T11:55:58.952Z,2.40
2017-11-01T11:58:27.273Z,2.53
2017-11-01T12:00:55.607Z,2.10
2017-11-01T12:03:23.927Z,1.73
2017-11-01T12:05:52.254Z,1.93
2017-11-01T12:08:21.330Z,2.00
2017-11-01T12:10:50.424Z,2.47
2017-11-01T12:13:19.505Z,2.23
2017-11-01T12:15:47.836Z,2.57
2017-11-01T12:18:16.145Z,2.67
2017-11-01T12:20:44.485Z,2.47
2017-11-01T12:23:12.799Z,1.70
2017-11-01T12:25:41.123Z,2.70
2017-11-01T12:28:10.200Z,2.17
2017-11-01T12:30:38.539Z,2.10
2017-11-01T12:33:06.837Z,2.97
2017-11-01T12:35:35.170Z,2.63
2017-11-01T12:38:03.484Z,1.93
2017-11-01T12:40:31.814Z,2.40
2017-11-01T12:43:00.898Z,2.27
2017-11-01T12:45:30.000Z,2.87
2017-11-01T12:47:59.087Z,2.83
2017-11-01T12:50:27.414Z,1.87
2017-11-01T12:52:55.716Z,2.20
2017-11-01T12:55:24.049Z,2.20
2017-11-01T12:57:52.364Z,2.13
2017-11-01T13:00:20.698Z,2.10
2017-11-01T13:02:49.031Z,2.70
2017-11-01T13:05:17.357Z,2.37
2017-11-01T13:07:46.437Z,1.83
2017-11-01T13:10:14.752Z,2.60
2017-11-01T13:12:43.064Z,2.20
2017-11-01T13:15:11.360Z,3.00
2017-11-01T13:17:39.683Z,2.07
2017-11-01T13:20:07.980Z,2.43
2017-11-01T13:22:36.303Z,2.13
2017-11-01T13:25:04.605Z,2.30
2017-11-01T13:27:32.946Z,2.67
2017-11-01T13:30:01.278Z,2.50
2017-11-01T13:32:29.602Z,2.00
2017-11-01T13:34:57.912Z,1.97
2017-11-01T13:37:27.000Z,2.40
2017-11-01T13:39:56.104Z,2.07
2017-11-01T13:42:25.290Z,2.10
2017-11-01T13:44:53.602Z,2.67
2017-11-01T13:47:21.938Z,2.57
2017-11-01T13:49:50.236Z,2.20
2017-11-01T13:52:19.330Z,2.20
2017-11-01T13:54:48.409Z,2.70
2017-11-01T13:57:17.510Z,2.20
2017-11-01T13:59:45.839Z,2.30
2017-11-01T14:02:14.185Z,2.30
2017-11-01T14:04:43.239Z,1.90
2017-11-01T14:07:11.556Z,3.20
2017-11-01T14:09:40.630Z,1.93
2017-11-01T14:12:08.960Z,1.97
2017-11-01T14:14:37.292Z,2.83
2017-11-01T14:17:05.643Z,2.53
2017-11-01T14:19:33.957Z,2.60
2017-11-01T14:22:02.298Z,2.43
2017-11-01T14:24:30.627Z,2.77
2017-11-01T14:26:58.957Z,2.97
2017-11-01T14:29:27.272Z,2.43
2017-11-01T14:31:56.365Z,3.57
2017-11-01T14:34:24.679Z,2.90
2017-11-01T14:36:53.019Z,9.53
2017-11-01T14:39:22.109Z,8.23
2017-11-01T14:41:50.437Z,7.23
2017-11-01T14:44:18.761Z,11.67
2017-11-01T14:46:49.010Z,4.80
2017-11-01T14:49:18.096Z,4.03
2017-11-01T14:51:46.430Z,5.10
2017-11-01T14:54:14.740Z,5.17
2017-11-01T14:56:43.059Z,4.20
2017-11-01T14:59:11.377Z,2.80
2017-11-01T15:01:39.722Z,2.50
2017-11-01T15:04:08.027Z,2.10
2017-11-01T15:06:36.364Z,2.57
2017-11-01T15:09:05.439Z,2.10
2017-11-01T15:11:37.179Z,2.10
2017-11-01T15:14:05.509Z,2.40
2017-11-01T15:16:34.235Z,3.17
2017-11-01T15:19:02.552Z,2.67
2017-11-01T15:21:30.889Z,2.90
2017-11-01T15:23:59.201Z,2.93
2017-11-01T15:26:28.294Z,3.43
2017-11-01T15:28:56.600Z,4.60
2017-11-01T15:31:24.922Z,3.53
2017-11-01T15:33:53.234Z,4.87
2017-11-01T15:36:22.335Z,5.00
2017-11-01T15:38:51.420Z,4.23
2017-11-01T15:41:19.754Z,4.40
2017-11-01T15:43:48.057Z,4.13
2017-11-01T15:46:16.409Z,5.13
2017-11-01T15:48:44.719Z,6.00
2017-11-01T15:51:13.062Z,5.60
2017-11-01T15:53:42.141Z,5.00
2017-11-01T15:56:10.507Z,5.53
2017-11-01T15:58:39.597Z,4.40
2017-11-01T16:01:08.706Z,6.57
2017-11-01T16:03:37.791Z,6.80
2017-11-01T16:06:06.871Z,6.83
2017-11-01T16:08:35.196Z,7.60
2017-11-01T16:11:03.529Z,9.20
2017-11-01T16:13:31.861Z,8.20
2017-11-01T16:16:00.160Z,10.47
2017-11-01T16:18:28.485Z,9.50
2017-11-01T16:20:57.566Z,6.60
2017-11-01T16:23:25.896Z,9.03
2017-11-01T16:25:54.977Z,14.60
2017-11-01T16:28:23.324Z,11.30
2017-11-01T16:30:55.959Z,8.13
2017-11-01T16:33:24.295Z,9.90
2017-11-01T16:35:53.369Z,6.90
2017-11-01T16:38:21.709Z,7.03
2017-11-01T16:40:50.020Z,7.57
2017-11-01T16:43:18.356Z,7.50
2017-11-01T16:45:46.679Z,7.80
2017-11-01T16:48:15.777Z,6.90
2017-11-01T16:50:44.138Z,7.53
2017-11-01T16:53:12.470Z,7.37
2017-11-01T16:55:40.763Z,7.80
2017-11-01T16:58:09.100Z,8.20
2017-11-01T17:00:38.198Z,7.73
2017-11-01T17:03:06.549Z,10.37
2017-11-01T17:05:34.868Z,7.47
2017-11-01T17:08:03.969Z,8.77
2017-11-01T17:10:33.037Z,10.03
2017-11-01T17:13:01.362Z,9.20
2017-11-01T17:15:30.549Z,8.67
2017-11-01T17:17:58.865Z,8.87
2017-11-01T17:20:27.182Z,7.70
2017-11-01T17:22:55.557Z,9.80
2017-11-01T17:25:23.858Z,9.27
2017-11-01T17:27:52.929Z,9.33
2017-11-01T17:30:21.229Z,16.63
2017-11-01T17:32:50.339Z,12.70
2017-11-01T17:35:18.632Z,9.67
2017-11-01T17:37:46.957Z,10.17
2017-11-01T17:40:15.266Z,11.53
2017-11-01T17:42:43.584Z,9.80
2017-11-01T17:45:11.880Z,10.67
2017-11-01T17:47:40.201Z,10.23
2017-11-01T17:50:08.500Z,10.40
2017-11-01T17:52:36.835Z,10.47
2017-11-01T17:55:05.163Z,9.10
2017-11-01T17:57:33.497Z,10.50
2017-11-01T18:00:02.564Z,8.00
2017-11-01T18:02:30.909Z,10.30
2017-11-01T18:04:59.200Z,9.23
2017-11-01T18:07:27.515Z,8.60
2017-11-01T18:09:55.814Z,9.63
2017-11-01T18:12:24.902Z,8.90
2017-11-01T18:14:53.203Z,8.57
2017-11-01T18:17:21.526Z,9.47
2017-11-01T18:19:49.820Z,7.73
2017-11-01T18:22:18.151Z,8.10
2017-11-01T18:24:46.448Z,9.20
2017-11-01T18:27:14.770Z,7.50
2017-11-01T18:29:43.840Z,7.43
2017-11-01T18:32:12.163Z,7.60
2017-11-01T18:34:41.224Z,7.70
2017-11-01T18:37:09.540Z,6.80
2017-11-01T18:39:37.867Z,8.33
2017-11-01T18:42:06.203Z,7.40
2017-11-01T18:44:34.514Z,7.30
2017-11-01T18:47:02.846Z,7.10
2017-11-01T18:49:31.914Z,7.57
2017-11-01T18:52:00.249Z,7.27
2017-11-01T18:54:28.552Z,7.40
2017-11-01T18:56:57.809Z,8.07
2017-11-01T18:59:26.138Z,9.70
2017-11-01T19:01:54.465Z,7.57
2017-11-01T19:04:23.537Z,7.23
2017-11-01T19:06:51.852Z,7.70
2017-11-01T19:09:20.155Z,7.60
2017-11-01T19:11:48.466Z,9.80
2017-11-01T19:14:16.791Z,10.73
2017-11-01T19:16:45.092Z,10.50
2017-11-01T19:19:13.451Z,9.47
2017-11-01T19:21:41.764Z,11.20
2017-11-01T19:24:10.090Z,10.33
2017-11-01T19:26:38.394Z,11.30
2017-11-01T19:29:06.732Z,11.40
2017-11-01T19:31:35.037Z,9.53
2017-11-01T19:34:03.354Z,8.97
2017-11-01T19:36:31.651Z,8.27
2017-11-01T19:38:59.969Z,8.30
2017-11-01T19:41:28.271Z,9.27
2017-11-01T19:43:56.591Z,8.80
2017-11-01T19:46:25.653Z,8.60
2017-11-01T19:48:54.410Z,8.97
2017-11-01T19:51:23.622Z,7.83
2017-11-01T19:53:51.928Z,9.57
2017-11-01T19:56:20.225Z,8.50
2017-11-01T19:58:48.559Z,8.90
2017-11-01T20:01:16.861Z,8.20
2017-11-01T20:03:45.184Z,11.03
2017-11-01T20:06:13.505Z,10.30
2017-11-01T20:08:41.827Z,10.20
2017-11-01T20:11:10.896Z,11.93
2017-11-01T20:13:39.223Z,13.30
2017-11-01T20:16:07.525Z,11.60
2017-11-01T20:18:36.775Z,11.40
2017-11-01T20:21:09.553Z,11.33
2017-11-01T20:23:38.641Z,9.97
2017-11-01T20:26:07.713Z,11.17
2017-11-01T20:28:36.032Z,10.97
2017-11-01T20:31:05.285Z,10.27
2017-11-01T20:33:33.596Z,10.30
2017-11-01T20:36:01.912Z,10.30
2017-11-01T20:38:33.876Z,10.93
2017-11-01T20:41:02.194Z,10.00
2017-11-01T20:43:30.515Z,10.63
2017-11-01T20:45:59.587Z,10.03
2017-11-01T20:48:27.955Z,16.37
2017-11-01T20:50:56.260Z,16.50
2017-11-01T20:53:25.349Z,17.60
2017-11-01T20:55:53.666Z,19.93
2017-11-01T20:58:21.989Z,17.50
2017-11-01T21:00:50.285Z,13.30
2017-11-01T21:03:19.368Z,13.43
2017-11-01T21:05:47.673Z,12.77
2017-11-01T21:08:17.002Z,12.60
2017-11-01T21:10:45.309Z,11.60
2017-11-01T21:13:13.619Z,10.97
2017-11-01T21:15:42.684Z,9.37
2017-11-01T21:18:11.006Z,9.80
2017-11-01T21:20:40.082Z,9.73
2017-11-01T21:23:08.390Z,9.07
2017-11-01T21:25:36.696Z,9.77
2017-11-01T21:28:05.015Z,10.37
2017-11-01T21:30:33.318Z,10.10
2017-11-01T21:33:02.396Z,9.33
2017-11-01T21:35:30.687Z,8.60
2017-11-01T21:37:59.769Z,9.70
2017-11-01T21:40:28.055Z,9.37
2017-11-01T21:42:57.132Z,9.70
2017-11-01T21:45:25.424Z,8.70
2017-11-01T21:47:54.495Z,8.60
2017-11-01T21:50:22.792Z,9.13
2017-11-01T21:52:51.104Z,8.83
2017-11-01T21:55:19.397Z,8.20
2017-11-01T21:57:47.706Z,9.43
2017-11-01T22:00:16.002Z,8.87
2017-11-01T22:02:44.313Z,8.87
2017-11-01T22:05:12.629Z,9.07
2017-11-01T22:07:40.925Z,8.20
2017-11-01T22:10:09.239Z,8.40
2017-11-01T22:12:37.537Z,8.47
2017-11-01T22:15:05.859Z,9.17
2017-11-01T22:17:34.162Z,8.43
2017-11-01T22:20:03.253Z,8.40
2017-11-01T22:22:32.315Z,9.70
2017-11-01T22:25:00.637Z,8.90
2017-11-01T22:27:28.946Z,9.30
2017-11-01T22:29:58.026Z,9.20
2017-11-01T22:32:26.326Z,8.40
2017-11-01T22:34:54.654Z,9.10
2017-11-01T22:37:23.713Z,8.40
2017-11-01T22:39:52.033Z,7.70
2017-11-01T22:42:21.101Z,8.00
2017-11-01T22:44:49.411Z,8.63
2017-11-01T22:47:18.463Z,7.60
2017-11-01T22:49:46.777Z,9.00
2017-11-01T22:52:15.072Z,8.40
2017-11-01T22:54:43.388Z,8.20
2017-11-01T22:57:11.690Z,8.30
2017-11-01T22:59:40.012Z,9.30
2017-11-01T23:02:08.311Z,8.13
2017-11-01T23:04:36.636Z,7.57
2017-11-01T23:07:04.933Z,9.03
2017-11-01T23:09:33.263Z,8.93
2017-11-01T23:12:01.568Z,11.10
2017-11-01T23:14:29.893Z,8.60
2017-11-01T23:16:58.188Z,8.40
2017-11-01T23:19:26.506Z,8.73
2017-11-01T23:21:54.813Z,8.77
2017-11-01T23:24:23.128Z,8.13
2017-11-01T23:26:51.418Z,11.93
2017-11-01T23:29:19.748Z,12.27
2017-11-01T23:31:48.048Z,13.03
2017-11-01T23:34:16.398Z,15.80
2017-11-01T23:36:45.478Z,14.97
2017-11-01T23:39:13.801Z,13.67
2017-11-01T23:41:42.115Z,16.10
2017-11-01T23:44:10.428Z,22.90
2017-11-01T23:46:39.502Z,22.50
2017-11-01T23:49:07.837Z,21.10
2017-11-01T23:51:36.151Z,17.40
2017-11-01T23:54:04.490Z,18.30
2017-11-01T23:56:32.787Z,18.23
2017-11-01T23:59:01.113Z,16.07
